Time;durP1;ratioP1;P1;durP2;ratioP2;P2;SDS_P1;SDS_P2;PMS_P1;PMS_P2;Temp;Humidity;BMP_temperature;BMP_pressure;BME280_temperature;BME280_humidity;BME280_pressure;Samples;Min_cycle;Max_cycle;Signal;HPM_P1;HPM_P2
2022/03/17 00:01:26;;;;;;;24.20;16.65;;;14.00;91.90;;;;;;5108830;28;20511;-66
2022/03/17 00:03:52;;;;;;;25.07;16.53;;;13.90;92.40;;;;;;5111536;28;20789;-65
2022/03/17 00:06:17;;;;;;;25.92;17.17;;;13.90;92.60;;;;;;5108231;28;20400;-66
2022/03/17 00:08:43;;;;;;;23.23;16.77;;;13.90;92.70;;;;;;5110542;28;20392;-64
2022/03/17 00:11:08;;;;;;;24.17;17.00;;;13.90;92.90;;;;;;5107605;28;20418;-64
2022/03/17 00:13:34;;;;;;;22.58;16.92;;;13.90;93.00;;;;;;5109659;28;20380;-66
2022/03/17 00:16:00;;;;;;;25.85;17.15;;;13.80;93.20;;;;;;5110542;28;20457;-65
2022/03/17 00:18:25;;;;;;;25.97;17.23;;;13.80;93.30;;;;;;5109400;28;20408;-65
2022/03/17 00:20:51;;;;;;;29.40;17.40;;;13.80;93.60;;;;;;5107778;28;20480;-66
2022/03/17 00:23:17;;;;;;;24.98;17.33;;;13.80;93.70;;;;;;5111068;28;20475;-66
2022/03/17 00:25:42;;;;;;;24.10;17.37;;;13.80;94.00;;;;;;5106186;28;21156;-66
2022/03/17 00:28:09;;;;;;;25.33;17.88;;;13.70;94.30;;;;;;5108465;28;20490;-65
2022/03/17 00:30:35;;;;;;;24.55;17.50;;;13.70;94.40;;;;;;5108506;28;20413;-65
2022/03/17 00:33:01;;;;;;;26.20;17.92;;;13.70;94.50;;;;;;5110800;28;20412;-64
2022/03/17 00:35:35;;;;;;;27.70;18.43;;;13.70;94.70;;;;;;5109222;28;20439;-64
2022/03/17 00:38:03;;;;;;;24.63;17.85;;;13.70;94.70;;;;;;5109712;28;20408;-65
2022/03/17 00:40:30;;;;;;;28.17;18.20;;;13.60;94.80;;;;;;5107047;28;20435;-64
2022/03/17 00:42:56;;;;;;;27.70;18.80;;;13.60;95.20;;;;;;5108663;28;20397;-64
2022/03/17 00:45:23;;;;;;;29.33;19.65;;;13.50;95.70;;;;;;5109135;28;20496;-65
2022/03/17 00:47:49;;;;;;;28.17;19.42;;;13.50;96.10;;;;;;5108281;28;20510;-64
2022/03/17 00:50:14;;;;;;;29.07;20.70;;;13.50;96.60;;;;;;5109755;27;20896;-66
2022/03/17 00:52:40;;;;;;;29.17;20.27;;;13.40;97.00;;;;;;5109301;28;20412;-66
2022/03/17 00:55:07;;;;;;;28.38;20.60;;;13.40;97.00;;;;;;5109809;28;20384;-65
2022/03/17 00:57:34;;;;;;;30.48;19.90;;;13.30;97.70;;;;;;5106814;28;20487;-66
2022/03/17 00:59:59;;;;;;;32.70;21.65;;;13.30;98.00;;;;;;5110549;28;20888;-65
2022/03/17 01:02:25;;;;;;;31.63;21.43;;;13.30;98.40;;;;;;5108313;28;20435;-67
2022/03/17 01:04:51;;;;;;;28.67;20.85;;;13.20;98.80;;;;;;5109361;28;20407;-66
2022/03/17 01:07:16;;;;;;;31.13;21.60;;;13.20;98.80;;;;;;5109541;28;20415;-65
2022/03/17 01:09:42;;;;;;;29.60;21.40;;;13.20;99.10;;;;;;5108347;28;20403;-67
2022/03/17 01:12:08;;;;;;;34.13;21.45;;;13.20;99.20;;;;;;5109500;28;20432;-66
2022/03/17 01:14:34;;;;;;;32.63;22.13;;;13.20;99.40;;;;;;5106921;28;20504;-67
2022/03/17 01:16:59;;;;;;;32.17;22.40;;;13.20;99.60;;;;;;5109586;28;20461;-66
2022/03/17 01:19:26;;;;;;;33.37;22.67;;;13.20;99.60;;;;;;5108926;28;20937;-66
2022/03/17 01:21:52;;;;;;;30.27;22.73;;;13.20;99.90;;;;;;5107854;28;20431;-64
2022/03/17 01:24:17;;;;;;;35.70;24.33;;;13.20;99.90;;;;;;5107300;28;20994;-66
2022/03/17 01:26:44;;;;;;;39.25;24.85;;;13.20;99.90;;;;;;5109996;28;20427;-66
2022/03/17 01:29:09;;;;;;;37.55;25.65;;;13.20;99.90;;;;;;5105407;28;20420;-67
2022/03/17 01:31:35;;;;;;;35.53;25.85;;;13.20;99.90;;;;;;5106553;28;20416;-66
2022/03/17 01:34:01;;;;;;;40.10;26.88;;;13.10;99.90;;;;;;5107942;28;20540;-65
2022/03/17 01:36:27;;;;;;;43.63;27.70;;;13.10;99.90;;;;;;5106972;28;20440;-66
2022/03/17 01:38:54;;;;;;;41.90;28.52;;;13.00;99.90;;;;;;5107181;28;20807;-66
2022/03/17 01:41:20;;;;;;;41.72;28.90;;;13.00;99.90;;;;;;5108039;28;20423;-67
2022/03/17 01:43:46;;;;;;;46.65;29.92;;;13.00;99.90;;;;;;5108038;28;20495;-66
2022/03/17 01:46:14;;;;;;;52.45;31.95;;;13.00;99.90;;;;;;5106652;28;20455;-65
2022/03/17 01:48:41;;;;;;;48.28;32.10;;;12.90;99.90;;;;;;5106201;28;20410;-66
2022/03/17 01:51:07;;;;;;;51.00;32.83;;;12.90;99.90;;;;;;5107763;28;20396;-65
2022/03/17 01:53:34;;;;;;;51.42;33.92;;;12.80;99.90;;;;;;5107499;28;20420;-65
2022/03/17 01:56:01;;;;;;;54.17;34.60;;;12.80;99.90;;;;;;5106876;28;20412;-64
2022/03/17 01:58:26;;;;;;;54.38;35.88;;;12.70;99.90;;;;;;5106608;28;20402;-66
2022/03/17 02:00:52;;;;;;;51.45;32.60;;;12.70;99.90;;;;;;5107193;28;20415;-67
2022/03/17 02:03:19;;;;;;;34.63;22.73;;;12.70;99.90;;;;;;5107901;28;20873;-66
2022/03/17 02:05:45;;;;;;;33.17;23.33;;;12.60;99.90;;;;;;5108468;28;20439;-66
2022/03/17 02:08:13;;;;;;;34.53;23.10;;;12.50;99.90;;;;;;5107940;28;20396;-64
2022/03/17 02:13:24;;;;;;;31.50;17.97;;;12.30;99.90;;;;;;5106636;28;20389;-64
2022/03/17 02:15:54;;;;;;;34.28;17.27;;;12.20;99.90;;;;;;5107764;28;20392;-68
2022/03/17 02:18:21;;;;;;;33.10;13.67;;;12.00;99.90;;;;;;5103929;28;20422;-66
2022/03/17 02:20:48;;;;;;;24.90;11.50;;;11.90;99.90;;;;;;5107161;28;20436;-67
2022/03/17 02:26:04;;;;;;;24.47;9.17;;;11.70;99.90;;;;;;5106961;28;20411;-68
2022/03/17 02:28:31;;;;;;;24.98;9.00;;;11.50;99.90;;;;;;5105381;28;20508;-63
2022/03/17 02:30:58;;;;;;;21.15;8.70;;;11.40;99.90;;;;;;5109042;28;20404;-65
2022/03/17 02:33:25;;;;;;;21.13;8.02;;;11.40;99.90;;;;;;5102744;28;20415;-64
2022/03/17 02:35:53;;;;;;;22.92;8.07;;;11.40;99.90;;;;;;5106637;28;20420;-66
2022/03/17 02:38:20;;;;;;;20.10;8.05;;;11.40;99.90;;;;;;5104792;28;20412;-63
2022/03/17 02:40:48;;;;;;;22.15;8.30;;;11.40;99.90;;;;;;5106466;28;20922;-64
2022/03/17 02:43:14;;;;;;;20.73;8.43;;;11.40;99.90;;;;;;5107917;28;20749;-65
2022/03/17 02:45:42;;;;;;;17.10;7.25;;;11.30;99.90;;;;;;5106810;28;20424;-64
2022/03/17 02:48:08;;;;;;;21.17;7.40;;;11.20;99.90;;;;;;5103422;28;20431;-63
2022/03/17 02:50:34;;;;;;;17.98;7.47;;;11.20;99.90;;;;;;5104368;28;20897;-65
2022/03/17 02:53:05;;;;;;;19.00;7.40;;;11.20;99.90;;;;;;5107957;28;20412;-65
2022/03/17 02:55:39;;;;;;;21.95;7.28;;;11.20;99.90;;;;;;5107057;28;20396;-64
2022/03/17 02:58:07;;;;;;;17.45;6.97;;;11.10;99.90;;;;;;5107281;28;20431;-67
2022/03/17 03:00:34;;;;;;;24.20;7.35;;;11.10;99.90;;;;;;5106614;28;20491;-64
2022/03/17 03:03:00;;;;;;;21.85;7.00;;;11.10;99.90;;;;;;5107761;28;20423;-67
2022/03/17 03:05:26;;;;;;;24.38;7.85;;;11.00;99.90;;;;;;5105683;28;20412;-67
2022/03/17 03:07:53;;;;;;;23.58;8.40;;;11.00;99.90;;;;;;5112413;28;20412;-65
2022/03/17 03:10:19;;;;;;;27.08;7.38;;;11.00;99.90;;;;;;5111925;28;20299;-66
2022/03/17 03:12:45;;;;;;;20.48;7.15;;;10.60;99.90;;;;;;5129868;27;20264;-65
2022/03/17 03:15:11;;;;;;;24.13;7.68;;;10.40;99.90;;;;;;5109270;28;20280;-69
2022/03/17 03:17:37;;;;;;;25.25;8.80;;;10.20;99.90;;;;;;5111968;28;20189;-67
2022/03/17 03:20:03;;;;;;;27.50;8.88;;;10.00;99.90;;;;;;5110296;28;20283;-66
2022/03/17 03:22:29;;;;;;;29.55;9.23;;;9.90;99.90;;;;;;5110604;28;20606;-67
2022/03/17 03:24:57;;;;;;;31.25;9.60;;;9.80;99.90;;;;;;5110269;28;20193;-66
2022/03/17 03:27:27;;;;;;;25.90;10.10;;;9.70;99.90;;;;;;5112851;28;20217;-66
2022/03/17 03:29:55;;;;;;;30.60;11.07;;;9.70;99.90;;;;;;5109600;28;20621;-66
2022/03/17 03:32:20;;;;;;;31.98;11.15;;;9.70;99.90;;;;;;5111418;28;20173;-67
2022/03/17 03:34:46;;;;;;;30.23;10.52;;;9.60;99.90;;;;;;5109497;28;20207;-67
2022/03/17 03:37:24;;;;;;;30.80;9.77;;;9.60;99.90;;;;;;5110882;28;20189;-66
2022/03/17 03:39:51;;;;;;;23.58;7.78;;;9.50;99.90;;;;;;5111384;28;20664;-66
2022/03/17 03:42:17;;;;;;;27.27;7.50;;;9.50;99.90;;;;;;5113685;28;20189;-66
2022/03/17 03:44:43;;;;;;;27.13;4.97;;;9.50;99.90;;;;;;5109027;28;20654;-65
2022/03/17 03:47:09;;;;;;;29.55;4.70;;;9.50;99.90;;;;;;5111040;28;20212;-65
2022/03/17 03:49:38;;;;;;;22.88;4.00;;;9.40;99.90;;;;;;5107264;28;20729;-65
2022/03/17 03:52:04;;;;;;;26.35;4.00;;;9.40;99.90;;;;;;5111859;28;20725;-66
2022/03/17 03:54:29;;;;;;;31.15;3.75;;;9.30;99.90;;;;;;5110115;28;20264;-66
2022/03/17 03:56:56;;;;;;;25.83;4.18;;;9.30;99.90;;;;;;5109525;27;20305;-65
2022/03/17 03:59:24;;;;;;;20.00;3.47;;;9.30;99.90;;;;;;5110592;28;20262;-65
2022/03/17 04:01:56;;;;;;;27.77;3.90;;;9.30;99.90;;;;;;5112952;28;20713;-66
2022/03/17 04:04:23;;;;;;;26.45;3.95;;;9.30;99.90;;;;;;5110578;28;20208;-65
2022/03/17 04:06:55;;;;;;;22.30;3.50;;;9.20;99.90;;;;;;5111666;28;20224;-66
2022/03/17 04:09:24;;;;;;;26.17;3.92;;;9.20;99.90;;;;;;5111463;28;20641;-66
2022/03/17 04:11:50;;;;;;;23.70;3.33;;;9.20;99.90;;;;;;5112623;28;20184;-65
2022/03/17 04:14:16;;;;;;;25.42;3.67;;;9.20;99.90;;;;;;5110719;28;20241;-65
2022/03/17 04:16:43;;;;;;;25.02;3.20;;;9.20;99.90;;;;;;5109507;28;20182;-65
2022/03/17 04:19:12;;;;;;;31.85;3.28;;;9.20;99.90;;;;;;5109546;28;20193;-65
2022/03/17 04:21:39;;;;;;;33.92;3.28;;;9.20;99.90;;;;;;5109281;28;20186;-64
2022/03/17 04:24:05;;;;;;;20.65;3.22;;;9.20;99.90;;;;;;5109061;28;20178;-64
2022/03/17 04:26:31;;;;;;;32.70;3.20;;;9.20;99.90;;;;;;5109005;28;20201;-65
2022/03/17 04:28:56;;;;;;;25.35;3.25;;;9.20;99.90;;;;;;5111438;28;20254;-64
2022/03/17 04:31:22;;;;;;;17.70;3.08;;;9.10;99.90;;;;;;5109700;28;20240;-65
2022/03/17 04:33:48;;;;;;;22.38;2.95;;;9.10;99.90;;;;;;5109356;28;20177;-66
2022/03/17 04:36:14;;;;;;;27.17;3.22;;;9.10;99.90;;;;;;5109321;28;20237;-66
2022/03/17 04:38:39;;;;;;;24.48;3.13;;;9.10;99.90;;;;;;5111003;28;20197;-66
2022/03/17 04:41:06;;;;;;;18.10;2.72;;;9.10;99.90;;;;;;5111964;28;20189;-64
2022/03/17 04:43:32;;;;;;;20.40;2.67;;;9.00;99.90;;;;;;5111514;28;20189;-64
2022/03/17 04:45:59;;;;;;;18.30;2.70;;;9.00;99.90;;;;;;5109336;28;20336;-64
2022/03/17 04:48:24;;;;;;;18.77;3.00;;;9.00;99.90;;;;;;5110450;28;20599;-64
2022/03/17 04:50:50;;;;;;;20.17;2.60;;;9.00;99.90;;;;;;5109001;28;20258;-64
2022/03/17 04:53:27;;;;;;;23.33;2.78;;;9.00;99.90;;;;;;5111207;28;20192;-66
2022/03/17 04:56:20;;;;;;;23.25;3.30;;;9.00;99.90;;;;;;5105994;28;20192;-64
2022/03/17 04:58:46;;;;;;;26.95;2.72;;;9.00;99.90;;;;;;5103163;28;20241;-64
2022/03/17 05:01:13;;;;;;;31.48;3.25;;;9.00;99.90;;;;;;5110575;28;20224;-65
2022/03/17 05:03:40;;;;;;;20.70;3.13;;;9.00;99.90;;;;;;5109745;28;20204;-64
2022/03/17 05:06:05;;;;;;;31.25;2.88;;;9.00;99.90;;;;;;5110174;28;20185;-65
2022/03/17 05:08:35;;;;;;;23.60;2.85;;;9.00;99.90;;;;;;5125466;27;20181;-66
2022/03/17 05:11:03;;;;;;;30.20;3.72;;;9.00;99.90;;;;;;5107194;28;20412;-65
2022/03/17 05:13:28;;;;;;;30.13;4.13;;;9.50;99.90;;;;;;5109495;28;20400;-66
2022/03/17 05:15:54;;;;;;;25.80;3.83;;;9.80;99.90;;;;;;5108826;28;20423;-67
2022/03/17 05:18:20;;;;;;;23.67;3.42;;;9.90;99.90;;;;;;5110256;28;20400;-66
2022/03/17 05:20:47;;;;;;;26.33;3.60;;;10.00;99.90;;;;;;5106461;27;20423;-66
2022/03/17 05:23:16;;;;;;;26.98;3.72;;;10.10;99.90;;;;;;5109497;28;20415;-67
2022/03/17 05:25:43;;;;;;;21.83;3.70;;;10.20;99.90;;;;;;5108121;28;20410;-65
2022/03/17 05:28:09;;;;;;;24.95;3.50;;;10.10;99.90;;;;;;5105787;28;20416;-67
2022/03/17 05:30:36;;;;;;;21.58;3.28;;;10.20;99.90;;;;;;5107333;28;20969;-66
2022/03/17 05:33:03;;;;;;;28.00;3.90;;;10.20;99.90;;;;;;5110250;28;20411;-66
2022/03/17 05:35:29;;;;;;;25.80;3.70;;;10.30;99.90;;;;;;5107494;28;20407;-65
2022/03/17 05:37:56;;;;;;;31.02;3.70;;;10.30;99.90;;;;;;5105713;28;20446;-67
2022/03/17 05:40:23;;;;;;;28.23;3.53;;;10.30;99.90;;;;;;5107936;28;20411;-66
2022/03/17 05:42:54;;;;;;;23.17;3.53;;;10.30;99.90;;;;;;5109803;28;20408;-65
2022/03/17 05:45:20;;;;;;;28.35;3.60;;;10.30;99.90;;;;;;5107122;28;20424;-66
2022/03/17 05:47:48;;;;;;;32.13;4.03;;;10.40;99.90;;;;;;5107593;28;20431;-66
2022/03/17 05:50:16;;;;;;;26.65;3.65;;;10.40;99.90;;;;;;5106532;28;20992;-65
2022/03/17 05:52:43;;;;;;;26.55;4.22;;;10.40;99.90;;;;;;5106874;28;20895;-66
2022/03/17 05:55:11;;;;;;;32.63;4.20;;;10.40;99.90;;;;;;5107960;28;20388;-65
2022/03/17 05:57:39;;;;;;;31.85;4.22;;;10.40;99.90;;;;;;5109056;28;20404;-68
2022/03/17 06:00:07;;;;;;;31.47;3.90;;;10.40;99.90;;;;;;5105464;28;20503;-67
2022/03/17 06:02:34;;;;;;;28.50;3.80;;;10.40;99.90;;;;;;5107295;28;20457;-68
2022/03/17 06:04:59;;;;;;;28.23;3.40;;;10.40;99.90;;;;;;5106222;28;20469;-69
2022/03/17 06:07:25;;;;;;;22.43;3.47;;;10.40;99.90;;;;;;5108539;28;20412;-67
2022/03/17 06:09:51;;;;;;;25.02;3.40;;;10.30;99.90;;;;;;5103604;28;20412;-66
2022/03/17 06:12:16;;;;;;;26.67;3.80;;;10.40;99.90;;;;;;5106561;28;20795;-66
2022/03/17 06:14:42;;;;;;;34.70;4.23;;;10.40;99.90;;;;;;5106651;28;20426;-66
2022/03/17 06:17:11;;;;;;;24.40;3.80;;;10.50;99.90;;;;;;5106624;28;20429;-67
2022/03/17 06:19:36;;;;;;;20.83;3.55;;;10.50;99.90;;;;;;5104884;28;20487;-65
2022/03/17 06:22:02;;;;;;;32.17;4.35;;;10.50;99.90;;;;;;5108197;28;20508;-65
2022/03/17 06:24:28;;;;;;;26.27;3.42;;;10.50;99.90;;;;;;5104616;28;20399;-64
2022/03/17 06:26:53;;;;;;;24.37;3.03;;;10.50;99.90;;;;;;5104883;28;20491;-67
2022/03/17 06:29:19;;;;;;;21.88;3.42;;;10.50;99.90;;;;;;5104209;28;20505;-66
2022/03/17 06:31:45;;;;;;;25.93;3.27;;;10.50;99.90;;;;;;5108173;28;20431;-65
2022/03/17 06:34:10;;;;;;;25.77;3.53;;;10.50;99.90;;;;;;5104534;28;20411;-66
2022/03/17 06:36:36;;;;;;;21.97;2.70;;;10.50;99.90;;;;;;5106333;28;20466;-66
2022/03/17 06:39:02;;;;;;;21.53;3.13;;;10.60;99.60;;;;;;5104339;28;20419;-67
2022/03/17 06:41:31;;;;;;;25.83;3.65;;;10.60;99.10;;;;;;5104634;28;20461;-65
2022/03/17 06:43:56;;;;;;;20.85;3.30;;;10.60;98.70;;;;;;5104025;28;21046;-67
2022/03/17 06:46:22;;;;;;;23.30;3.13;;;10.60;98.70;;;;;;5101439;28;20428;-66
2022/03/17 06:48:48;;;;;;;21.63;3.27;;;10.60;98.20;;;;;;5105197;28;20404;-66
2022/03/17 06:51:13;;;;;;;18.58;2.92;;;10.60;97.80;;;;;;5107318;28;20495;-70
2022/03/17 06:53:39;;;;;;;20.85;2.85;;;10.60;97.80;;;;;;5103835;28;20478;-65
2022/03/17 06:56:04;;;;;;;25.63;3.40;;;10.70;98.10;;;;;;5106739;28;20437;-67
2022/03/17 06:58:31;;;;;;;24.38;3.10;;;10.70;97.70;;;;;;5107826;28;20402;-67
2022/03/17 07:00:57;;;;;;;23.63;3.63;;;10.80;98.00;;;;;;5104838;28;20404;-64
2022/03/17 07:03:23;;;;;;;24.58;3.35;;;10.80;97.80;;;;;;5105972;28;20818;-64
2022/03/17 07:05:48;;;;;;;19.00;3.70;;;10.80;97.70;;;;;;5107157;28;20414;-65
2022/03/17 07:08:14;;;;;;;29.38;3.67;;;10.90;97.60;;;;;;5104991;28;20493;-62
2022/03/17 07:10:39;;;;;;;26.10;3.47;;;10.80;97.40;;;;;;5107311;28;20495;-65
2022/03/17 07:13:05;;;;;;;24.48;3.50;;;10.80;97.70;;;;;;5106079;28;20475;-65
2022/03/17 07:15:31;;;;;;;24.93;3.60;;;10.90;98.10;;;;;;5105702;28;20417;-64
2022/03/17 07:17:57;;;;;;;24.63;3.30;;;10.90;97.90;;;;;;5104241;28;20408;-63
2022/03/17 07:20:23;;;;;;;26.95;3.63;;;10.90;97.60;;;;;;5105434;28;20784;-62
2022/03/17 07:22:50;;;;;;;27.97;3.53;;;10.90;97.90;;;;;;5107241;28;20873;-68
2022/03/17 07:25:20;;;;;;;22.45;3.20;;;10.90;98.20;;;;;;5104455;28;20896;-65
2022/03/17 07:27:47;;;;;;;20.95;3.40;;;10.90;98.00;;;;;;5106633;28;20477;-66
2022/03/17 07:30:22;;;;;;;18.47;3.27;;;10.90;97.90;;;;;;5107115;28;20427;-67
2022/03/17 07:32:52;;;;;;;20.70;2.57;;;10.90;98.00;;;;;;5107024;28;20396;-67
2022/03/17 07:35:18;;;;;;;23.98;3.05;;;10.90;97.80;;;;;;5104867;28;20416;-65
2022/03/17 07:37:44;;;;;;;20.70;2.58;;;10.90;97.80;;;;;;5103365;28;20461;-65
2022/03/17 07:40:10;;;;;;;19.13;2.63;;;10.80;97.60;;;;;;5106801;28;20408;-63
2022/03/17 07:42:36;;;;;;;16.92;2.60;;;10.80;97.60;;;;;;5105264;28;20461;-64
2022/03/17 07:45:22;;;;;;;18.17;2.80;;;10.70;97.50;;;;;;5099150;28;20451;-62
2022/03/17 07:48:13;;;;;;;18.73;2.95;;;10.80;97.50;;;;;;5107032;28;20974;-65
2022/03/17 07:50:50;;;;;;;15.40;2.75;;;10.80;97.50;;;;;;5105471;28;20499;-63
2022/03/17 07:53:17;;;;;;;25.30;5.30;;;10.70;97.60;;;;;;5110010;28;20494;-64
2022/03/17 07:55:43;;;;;;;23.35;4.10;;;10.70;97.80;;;;;;5106574;28;20437;-62
2022/03/17 07:58:10;;;;;;;20.13;3.05;;;10.80;98.00;;;;;;5110517;28;20470;-65
2022/03/17 08:00:37;;;;;;;16.42;2.60;;;10.80;98.00;;;;;;5110548;28;20404;-61
2022/03/17 08:03:06;;;;;;;17.88;2.53;;;10.90;97.60;;;;;;5110555;28;20775;-67
2022/03/17 08:05:32;;;;;;;12.60;2.33;;;11.00;96.90;;;;;;5107819;28;20410;-67
2022/03/17 08:08:00;;;;;;;15.83;2.80;;;11.10;96.20;;;;;;5108895;28;20405;-64
2022/03/17 08:10:28;;;;;;;10.15;2.45;;;11.20;96.20;;;;;;5110302;28;20404;-65
2022/03/17 08:12:55;;;;;;;12.75;2.08;;;11.40;96.00;;;;;;5110457;28;20427;-64
2022/03/17 08:15:20;;;;;;;11.65;2.30;;;11.50;95.10;;;;;;5109755;28;20441;-65
2022/03/17 08:17:47;;;;;;;11.40;2.00;;;11.60;95.00;;;;;;5108253;28;20400;-66
2022/03/17 08:20:14;;;;;;;13.80;1.85;;;11.70;93.90;;;;;;5109220;28;20420;-64
2022/03/17 08:22:42;;;;;;;13.20;2.00;;;11.80;93.80;;;;;;5110482;28;20450;-65
2022/03/17 08:25:08;;;;;;;12.48;2.25;;;11.80;93.30;;;;;;5109433;28;20400;-66
2022/03/17 08:27:37;;;;;;;14.75;2.08;;;11.90;93.10;;;;;;5110482;28;20416;-67
2022/03/17 08:30:04;;;;;;;13.85;2.20;;;12.10;92.90;;;;;;5109352;28;21192;-63
2022/03/17 08:32:29;;;;;;;13.05;3.10;;;12.10;92.60;;;;;;5108272;28;20404;-66
2022/03/17 08:34:55;;;;;;;14.23;2.43;;;12.30;92.80;;;;;;5110270;28;20457;-66
2022/03/17 08:37:20;;;;;;;10.93;2.30;;;12.40;92.60;;;;;;5106895;28;20416;-65
2022/03/17 08:39:48;;;;;;;15.17;2.73;;;12.70;92.60;;;;;;5108812;28;20427;-65
2022/03/17 08:42:14;;;;;;;11.93;2.50;;;13.50;91.50;;;;;;5108603;28;20483;-64
2022/03/17 08:44:40;;;;;;;12.85;2.30;;;14.70;88.70;;;;;;5109592;28;20389;-67
2022/03/17 08:49:50;;;;;;;11.48;2.10;;;16.70;77.10;;;;;;5107470;28;20483;-66
2022/03/17 08:52:16;;;;;;;7.87;2.00;;;17.20;69.70;;;;;;5109192;28;20445;-64
2022/03/17 08:54:44;;;;;;;10.90;2.40;;;17.50;71.70;;;;;;5109645;28;20400;-65
2022/03/17 08:57:11;;;;;;;11.02;2.10;;;18.80;65.20;;;;;;5106902;28;20932;-66
2022/03/17 08:59:37;;;;;;;11.90;2.28;;;20.40;56.60;;;;;;5106146;28;20451;-66
2022/03/17 09:02:05;;;;;;;11.20;2.08;;;21.90;50.60;;;;;;5106933;28;20461;-65
2022/03/17 09:04:32;;;;;;;11.82;1.95;;;23.10;46.80;;;;;;5106036;28;20408;-65
2022/03/17 09:06:59;;;;;;;12.13;2.45;;;24.20;43.70;;;;;;5103482;28;20412;-66
2022/03/17 09:09:34;;;;;;;12.00;2.47;;;24.70;41.80;;;;;;5108771;28;20404;-65
2022/03/17 09:12:05;;;;;;;11.68;2.40;;;25.00;40.80;;;;;;5108508;28;20872;-64
2022/03/17 09:14:32;;;;;;;12.88;2.20;;;25.80;39.20;;;;;;5107295;28;21234;-66
2022/03/17 09:16:58;;;;;;;11.80;2.20;;;26.50;37.80;;;;;;5110337;28;20396;-67
2022/03/17 09:19:23;;;;;;;12.73;2.30;;;26.80;37.00;;;;;;5106585;28;20960;-66
2022/03/17 09:21:49;;;;;;;10.25;2.10;;;26.90;36.20;;;;;;5110007;28;20470;-67
2022/03/17 09:24:15;;;;;;;9.25;1.70;;;26.10;37.10;;;;;;5106247;28;20484;-65
2022/03/17 09:26:40;;;;;;;11.83;2.30;;;25.60;36.90;;;;;;5109255;28;20435;-65
2022/03/17 09:29:06;;;;;;;13.97;2.90;;;25.70;37.60;;;;;;5106939;28;20457;-63
2022/03/17 09:31:32;;;;;;;11.50;2.30;;;25.80;36.60;;;;;;5109105;28;20490;-65
2022/03/17 09:33:58;;;;;;;11.20;2.07;;;26.30;36.40;;;;;;5109712;28;20483;-64
2022/03/17 09:36:24;;;;;;;11.75;2.22;;;27.20;34.40;;;;;;5105286;28;20485;-66
2022/03/17 09:41:36;;;;;;;9.93;2.50;;;28.20;33.40;;;;;;5109835;28;20864;-66
2022/03/17 09:44:03;;;;;;;8.60;2.20;;;28.40;33.60;;;;;;5108340;28;20415;-65
2022/03/17 09:46:30;;;;;;;13.50;2.60;;;29.00;32.60;;;;;;5107409;28;20792;-66
2022/03/17 09:48:56;;;;;;;14.40;2.88;;;28.90;31.50;;;;;;5107990;28;20547;-67
2022/03/17 09:51:24;;;;;;;12.20;2.40;;;28.00;33.40;;;;;;5108401;28;20401;-67
2022/03/17 09:53:53;;;;;;;10.40;2.33;;;27.90;33.30;;;;;;5109825;28;20395;-66
2022/03/17 09:56:26;;;;;;;12.60;2.60;;;28.50;33.00;;;;;;5105751;28;20927;-69
2022/03/17 09:58:53;;;;;;;11.68;2.67;;;28.70;32.00;;;;;;5107134;28;20473;-68
2022/03/17 10:01:20;;;;;;;10.18;2.50;;;28.20;32.60;;;;;;5106564;28;20502;-68
2022/03/17 10:03:46;;;;;;;15.65;2.70;;;27.80;33.60;;;;;;5109677;28;20836;-65
2022/03/17 10:06:14;;;;;;;11.30;2.83;;;27.40;34.40;;;;;;5108085;28;20895;-67
2022/03/17 10:08:41;;;;;;;10.32;2.30;;;27.30;34.90;;;;;;5107757;28;20400;-66
2022/03/17 10:11:07;;;;;;;12.75;2.60;;;27.30;35.50;;;;;;5105333;28;20400;-66
2022/03/17 10:13:43;;;;;;;14.75;2.80;;;27.70;34.60;;;;;;5107998;28;20461;-66
2022/03/17 10:16:10;;;;;;;10.15;2.83;;;28.40;33.10;;;;;;5105975;28;20407;-66
2022/03/17 10:18:39;;;;;;;10.48;2.67;;;29.00;32.00;;;;;;5104434;28;20402;-67
2022/03/17 10:21:24;;;;;;;12.93;2.70;;;28.80;31.20;;;;;;5107054;28;20396;-67
2022/03/17 10:23:52;;;;;;;13.07;2.80;;;27.90;32.30;;;;;;5108565;28;20384;-66
2022/03/17 10:26:38;;;;;;;10.35;2.75;;;27.30;33.00;;;;;;5108159;28;20408;-67
2022/03/17 10:29:06;;;;;;;13.95;2.65;;;26.80;34.80;;;;;;5106035;28;20975;-67
2022/03/17 10:31:49;;;;;;;13.23;2.95;;;27.10;34.10;;;;;;5108323;28;20456;-68
2022/03/17 10:34:15;;;;;;;13.82;2.80;;;27.20;33.60;;;;;;5103748;28;20906;-67
2022/03/17 10:36:41;;;;;;;14.93;3.07;;;26.70;34.50;;;;;;5108622;28;20414;-67
2022/03/17 10:39:10;;;;;;;15.10;3.00;;;26.30;35.90;;;;;;5107393;28;20418;-66
2022/03/17 10:41:45;;;;;;;15.27;3.03;;;26.10;36.60;;;;;;5107295;28;20483;-66
2022/03/17 10:44:12;;;;;;;14.00;2.80;;;25.60;37.00;;;;;;5105459;28;20499;-68
2022/03/17 10:46:38;;;;;;;14.98;3.15;;;24.80;37.80;;;;;;5106721;28;21167;-66
2022/03/17 10:49:06;;;;;;;13.90;3.33;;;24.20;39.40;;;;;;5107341;28;20416;-65
2022/03/17 10:51:38;;;;;;;14.48;2.95;;;24.10;39.60;;;;;;5107667;28;20511;-67
2022/03/17 10:54:03;;;;;;;15.52;3.30;;;24.00;40.00;;;;;;5107044;28;20506;-64
2022/03/17 10:56:29;;;;;;;15.13;3.13;;;23.90;39.70;;;;;;5106997;28;20519;-67
2022/03/17 10:58:55;;;;;;;14.13;3.40;;;24.20;40.10;;;;;;5107943;28;20400;-67
2022/03/17 11:01:39;;;;;;;16.05;3.25;;;24.90;39.30;;;;;;5107232;28;20494;-66
2022/03/17 11:04:05;;;;;;;15.60;2.97;;;25.80;38.00;;;;;;5107647;28;20415;-65
2022/03/17 11:06:32;;;;;;;14.10;3.15;;;26.30;35.70;;;;;;5104689;28;20408;-67
2022/03/17 11:09:02;;;;;;;12.93;3.05;;;26.30;35.20;;;;;;5106969;28;20861;-67
2022/03/17 11:11:29;;;;;;;11.73;2.53;;;26.40;36.20;;;;;;5108145;28;20400;-66
2022/03/17 11:13:58;;;;;;;14.25;3.13;;;26.70;35.10;;;;;;5108009;28;20399;-64
2022/03/17 11:16:32;;;;;;;18.40;3.20;;;26.80;34.70;;;;;;5105638;28;20428;-66
2022/03/17 11:18:59;;;;;;;14.40;3.30;;;26.90;34.30;;;;;;5107699;28;20415;-64
2022/03/17 11:21:30;;;;;;;15.98;3.05;;;26.60;35.20;;;;;;5106706;28;20452;-64
2022/03/17 11:24:04;;;;;;;19.55;3.13;;;26.60;35.40;;;;;;5105930;28;20392;-66
2022/03/17 11:26:44;;;;;;;17.92;3.22;;;26.50;35.30;;;;;;5109444;28;20451;-64
2022/03/17 11:29:13;;;;;;;15.25;2.78;;;26.30;35.60;;;;;;5108855;28;20505;-65
2022/03/17 11:32:02;;;;;;;12.43;2.80;;;26.20;35.30;;;;;;5112004;28;20406;-66
2022/03/17 11:34:46;;;;;;;16.48;3.20;;;25.90;35.70;;;;;;5110428;28;20415;-67
2022/03/17 11:37:23;;;;;;;18.07;3.17;;;25.60;36.10;;;;;;5108747;28;20424;-66
2022/03/17 11:39:49;;;;;;;16.43;3.40;;;25.10;36.50;;;;;;5107466;28;20427;-66
2022/03/17 11:42:37;;;;;;;14.55;2.92;;;24.50;37.70;;;;;;5110687;28;20400;-67
2022/03/17 11:45:14;;;;;;;14.05;2.78;;;24.00;38.50;;;;;;5109126;28;20915;-65
2022/03/17 11:47:52;;;;;;;14.35;2.80;;;23.50;39.40;;;;;;5109380;28;20439;-65
2022/03/17 11:50:42;;;;;;;13.65;3.10;;;23.10;40.00;;;;;;5110366;28;20420;-65
2022/03/17 11:53:12;;;;;;;12.52;2.95;;;22.80;40.40;;;;;;5110248;28;20499;-64
2022/03/17 11:55:52;;;;;;;13.55;2.88;;;22.50;41.70;;;;;;5109248;28;20569;-66
2022/03/17 11:58:39;;;;;;;14.85;2.97;;;22.30;41.80;;;;;;5107645;28;20412;-65
2022/03/17 12:01:11;;;;;;;18.48;3.38;;;22.20;42.40;;;;;;5108162;28;20433;-64
2022/03/17 12:03:41;;;;;;;18.42;2.92;;;22.20;42.90;;;;;;5107254;28;20421;-65
2022/03/17 12:06:12;;;;;;;15.10;2.92;;;22.30;41.60;;;;;;5109606;28;20404;-64
2022/03/17 12:08:41;;;;;;;16.17;2.40;;;22.60;42.00;;;;;;5106739;28;20872;-64
2022/03/17 12:11:22;;;;;;;15.43;2.70;;;23.00;40.70;;;;;;5108493;28;20884;-65
2022/03/17 12:14:21;;;;;;;16.80;2.80;;;23.20;40.00;;;;;;5109891;28;20893;-64
2022/03/17 12:16:56;;;;;;;27.40;2.83;;;23.30;40.40;;;;;;5109177;28;20485;-66
2022/03/17 12:20:02;;;;;;;17.98;2.90;;;23.30;39.70;;;;;;5107931;28;20443;-66
2022/03/17 12:22:31;;;;;;;17.60;2.70;;;23.20;40.30;;;;;;5107432;28;20408;-67
2022/03/17 12:25:02;;;;;;;12.07;2.30;;;23.10;40.80;;;;;;5108803;28;20445;-68
2022/03/17 12:27:33;;;;;;;14.27;2.40;;;23.00;40.30;;;;;;5110150;28;20409;-64
2022/03/17 12:30:06;;;;;;;16.80;2.10;;;22.60;40.70;;;;;;5111315;28;20193;-65
2022/03/17 12:32:38;;;;;;;12.90;2.17;;;21.70;42.50;;;;;;5110556;28;20177;-65
2022/03/17 12:35:05;;;;;;;9.70;1.95;;;21.10;43.70;;;;;;5112303;28;20193;-64
2022/03/17 12:37:33;;;;;;;10.90;2.05;;;20.80;45.20;;;;;;5109210;28;20193;-65
2022/03/17 12:40:05;;;;;;;12.57;2.22;;;20.50;45.10;;;;;;5112107;28;20193;-66
2022/03/17 12:42:37;;;;;;;10.48;1.65;;;20.40;45.50;;;;;;5107496;28;20194;-66
2022/03/17 12:45:05;;;;;;;8.38;1.73;;;20.30;45.30;;;;;;5111504;28;20238;-65
2022/03/17 12:47:33;;;;;;;;;;;20.20;45.60;;;;;;5110554;28;20043;-66
2022/03/17 12:50:00;;;;;;;;;;;20.00;45.30;;;;;;5112782;28;19911;-65
2022/03/17 12:52:27;;;;;;;;;;;19.60;46.20;;;;;;5109825;28;19912;-65
2022/03/17 12:54:54;;;;;;;;;;;19.30;46.70;;;;;;5111171;28;19904;-64